F/V Canto Nuevo — EBVH — position and weather

sailwx.info

Track history (hours):
 
Tides and Currents Weather Stations Pressure Air Temp Water Temp Dewpoint Dewpoint Depression Visibility Wind Speed Wind Dir Waves Ship Positions

F/V Canto Nuevo

Last reported at 2018-Jun-25 06:24 UTC. Time now 2018-Jun-25 15:56 UTC.
Position N 46°60' W 005°39'.

Length 26 m; draft 25.5 m.

Type: Fishing. MMSI: 224045260.

Date/timePositionNaut miles runAvg speedWind from/ knotsBaromVisibWave heightAir tempDewpointWater temp
2018-Jun-25 06:24N 46°60' W 005°39'0 0.0
2018-Jun-24 02:36N 46°60' W 005°39'  
2018-Jun-17 00:23N 46°28' W 003°52'7 9.0
2018-Jun-16 23:39N 46°34' W 003°48'1 9.3
2018-Jun-16 23:31N 46°36' W 003°47'20 0.5
2018-Jun-15 08:19N 46°41' W 003°19'1 2.3
2018-Jun-15 08:01N 46°40' W 003°19'1 1.3
2018-Jun-15 07:30N 46°41' W 003°19'1 1.2
2018-Jun-15 06:49N 46°41' W 003°19'  
Track history (hours):
 
Tides and Currents Weather Stations Pressure Air Temp Water Temp Dewpoint Dewpoint Depression Visibility Wind Speed Wind Dir Waves Ship Positions

F/V Canto Nuevo

Last reported at 2018-Jun-25 06:24 UTC. Time now 2018-Jun-25 15:56 UTC.
Position N 46°60' W 005°39'.

Length 26 m; draft 25.5 m.

Type: Fishing. MMSI: 224045260.

Date/timePositionNaut miles runAvg speedWind from/ knotsBaromVisibWave heightAir tempDewpointWater temp
2018-Jun-25 06:24N 46°60' W 005°39'0 0.0
2018-Jun-24 02:36N 46°60' W 005°39'  
2018-Jun-17 00:23N 46°28' W 003°52'7 9.0
2018-Jun-16 23:39N 46°34' W 003°48'1 9.3
2018-Jun-16 23:31N 46°36' W 003°47'20 0.5
2018-Jun-15 08:19N 46°41' W 003°19'1 2.3
2018-Jun-15 08:01N 46°40' W 003°19'1 1.3
2018-Jun-15 07:30N 46°41' W 003°19'1 1.2
2018-Jun-15 06:49N 46°41' W 003°19'  

Dump ship's entire track history